Lakeville, Michigan
Current Conditions -  °F | °C
As of 1:53 PM on Friday 28 Nov 2014 (Local Time) from KPTK Reporting Station
Overcast Overcast  
Wind Chill: 17°   Ceiling: 7000
Heat Index: 26°   Visibility: 10mi
Dew Point: 12°   Wind: 9mph
Humidity: 55%   Direction: 190°S
Pressure: 30.18"   Gusts: NA
Location:  42.82°N, 83.15°W
Report Text: KPTK 281853Z 19008KT 10SM SCT030 BKN070 OVC110 M03/M11 A3018 RMK AO2 SLP235 T10331111
Loading
Personal Weather Stations






























Interactive Weather Map New forecast layout! Learn more

10-Day Weather Forecast

Advertisements
Track Severe Weather on mobile